Aquatravesia — D5NA7 — position and weather

sailwx.info

Track history (hours):
 
Tides and Currents Weather Stations Pressure Air Temp Water Temp Dewpoint Dewpoint Depression Visibility Wind Speed Wind Dir Waves Ship Positions

Aquatravesia

Last reported at 2018-May-02 12:40 UTC. Time now 2018-May-20 14:04 UTC.
Position N 32°19' W 117°45'.
Warning: this ship's position is 18 days out of date.

Length 244 m; draft 8.7 m.

Type: Ship. MMSI: 636017859.

Date/timePositionNaut miles runAvg speedWind from/ knotsBaromVisibWave heightAir tempDewpointWater temp
2018-May-02 12:40N 32°19' W 117°45'211.6
2018-May-02 12:30N 32°21' W 117°45'611.5
2018-May-02 12:00N 32°27' W 117°47'611.5
2018-May-02 11:30N 32°32' W 117°49'611.8
2018-May-02 11:00N 32°38' W 117°51'611.8
2018-May-02 10:30N 32°44' W 117°53'611.7
2018-May-02 10:00N 32°49' W 117°55'612.0
2018-May-02 09:30N 32°55' W 117°57'611.8
2018-May-02 09:00N 33°00' W 117°59'612.0
2018-May-02 08:30N 33°06' W 118°02'612.0
2018-May-02 08:00N 33°12' W 118°04'612.0
2018-May-02 07:30N 33°17' W 118°06'2111.1
2018-May-02 05:37N 33°38' W 118°12'111.4
2018-May-02 05:29N 33°39' W 118°12'4 8.9
2018-May-02 05:00N 33°43' W 118°11'2 3.2
2018-May-02 04:29N 33°44' W 118°13'0 0.0
2018-May-02 03:59N 33°44' W 118°13'0 0.0
2018-May-02 03:26N 33°44' W 118°13'0 0.0
2018-May-02 02:59N 33°44' W 118°13'0 0.0
2018-May-02 02:29N 33°44' W 118°13'0 0.0
2018-May-02 01:59N 33°44' W 118°13'0 0.0
2018-May-02 01:29N 33°44' W 118°13'0 0.0
2018-May-02 00:59N 33°44' W 118°13'0 0.0
2018-May-02 00:29N 33°44' W 118°13'0 0.1
2018-May-01 23:59N 33°44' W 118°13'0 0.1
2018-May-01 23:29N 33°44' W 118°13'0 0.0
2018-May-01 22:59N 33°44' W 118°13'0 0.1
2018-May-01 22:29N 33°44' W 118°13'0 0.0
2018-May-01 21:59N 33°44' W 118°13'0 0.1
2018-May-01 21:26N 33°44' W 118°13'0 0.1
2018-May-01 21:01N 33°44' W 118°13'2 3.9
2018-May-01 20:31N 33°46' W 118°13'1 1.1
2018-May-01 19:56N 33°46' W 118°13'0 0.0
2018-May-01 19:14N 33°46' W 118°13'0 0.0
2018-May-01 18:47N 33°46' W 118°13'0 0.0
2018-May-01 02:44N 33°46' W 118°13'0 0.0
2018-May-01 02:26N 33°46' W 118°13'0 0.0
2018-Apr-29 23:44N 33°46' W 118°13'0 0.0
2018-Apr-29 23:26N 33°46' W 118°13'0 0.0
2018-Apr-29 22:20N 33°46' W 118°13'0 0.0
2018-Apr-29 21:53N 33°46' W 118°13'0 0.0
2018-Apr-29 21:26N 33°46' W 118°13'0 0.0
2018-Apr-29 20:56N 33°46' W 118°13'0 0.0
2018-Apr-29 20:17N 33°46' W 118°13'0 0.0
2018-Apr-29 19:50N 33°46' W 118°13'0 0.0
2018-Apr-29 19:26N 33°46' W 118°13'0 0.0
2018-Apr-29 18:50N 33°46' W 118°13'0 0.0
2018-Apr-29 18:20N 33°46' W 118°13'0 0.0
2018-Apr-29 17:50N 33°46' W 118°13'0 0.0
2018-Apr-29 16:38N 33°46' W 118°13'0 0.0
2018-Apr-29 16:29N 33°46' W 118°13'0 0.0
2018-Apr-29 15:56N 33°46' W 118°13'0 0.0
2018-Apr-29 15:26N 33°46' W 118°13'0 0.0
2018-Apr-29 10:59N 33°46' W 118°13'1 1.3
2018-Apr-29 10:30N 33°46' W 118°13'2 4.6
2018-Apr-29 10:00N 33°44' W 118°12'3 6.2
2018-Apr-29 09:28N 33°41' W 118°09'0 0.4
2018-Apr-29 08:22N 33°41' W 118°08'0 0.1
2018-Apr-29 07:58N 33°41' W 118°08'0 0.0
2018-Apr-29 07:10N 33°41' W 118°08'0 0.0
2018-Apr-29 06:46N 33°41' W 118°08'0 0.0
2018-Apr-29 06:28N 33°41' W 118°08'0 0.0
2018-Apr-29 05:58N 33°41' W 118°08'0 0.0
2018-Apr-29 05:22N 33°41' W 118°08'0 0.0
2018-Apr-29 04:58N 33°41' W 118°08'0 0.0
2018-Apr-29 04:28N 33°41' W 118°08'0 0.0
2018-Apr-29 03:58N 33°41' W 118°08'0 0.0
2018-Apr-29 03:25N 33°41' W 118°08'0 0.0
2018-Apr-29 02:49N 33°41' W 118°08'0 0.0
2018-Apr-29 02:28N 33°41' W 118°08'0 0.0
2018-Apr-29 01:58N 33°41' W 118°08'0 0.0
2018-Apr-29 01:28N 33°41' W 118°08'0 0.0
2018-Apr-29 00:58N 33°41' W 118°08'0 0.0
2018-Apr-29 00:28N 33°41' W 118°08'0 0.0
2018-Apr-28 23:58N 33°41' W 118°08'0 0.0
2018-Apr-28 23:28N 33°41' W 118°08'0 0.0
2018-Apr-28 22:58N 33°41' W 118°08'0 0.0
2018-Apr-28 22:28N 33°41' W 118°08'0 0.0
2018-Apr-28 21:58N 33°41' W 118°08'0 0.0
2018-Apr-28 21:22N 33°41' W 118°08'0 0.0
2018-Apr-28 20:55N 33°41' W 118°08'0 0.0
2018-Apr-28 20:28N 33°41' W 118°08'0 0.0
2018-Apr-28 19:55N 33°41' W 118°08'0 0.0
2018-Apr-28 19:28N 33°41' W 118°08'0 0.0
2018-Apr-28 18:55N 33°41' W 118°08'0 0.0
2018-Apr-28 18:25N 33°41' W 118°08'0 0.0
2018-Apr-28 17:55N 33°41' W 118°08'0 0.0
2018-Apr-28 17:22N 33°41' W 118°08'0 0.0
2018-Apr-28 16:58N 33°41' W 118°08'0 0.0
2018-Apr-28 15:36N 33°41' W 118°08'0 0.0
2018-Apr-28 15:30N 33°41' W 118°08'0 0.0
2018-Apr-28 15:00N 33°41' W 118°08'0 0.0
2018-Apr-28 14:30N 33°41' W 118°08'0 0.0
2018-Apr-28 14:00N 33°41' W 118°08'0 0.0
2018-Apr-28 13:27N 33°41' W 118°08'0 0.0
2018-Apr-28 12:36N 33°41' W 118°08'0 0.0
2018-Apr-28 12:21N 33°41' W 118°08'0 0.0
2018-Apr-28 11:54N 33°41' W 118°08'0 0.0
2018-Apr-28 11:18N 33°41' W 118°08'0 0.0
2018-Apr-28 11:00N 33°41' W 118°08'0 0.0
2018-Apr-28 10:30N 33°41' W 118°08'0 0.0
2018-Apr-28 09:48N 33°41' W 118°08'0 0.0
2018-Apr-28 04:27N 33°41' W 118°09'1 2.5
2018-Apr-28 04:00N 33°40' W 118°09'5 9.1
2018-Apr-28 03:28N 33°35' W 118°09'912.1
2018-Apr-28 02:46N 33°27' W 118°06'412.2
2018-Apr-28 02:28N 33°24' W 118°05'10 8.4
2018-Apr-28 01:15N 33°14' W 118°00'312.5
2018-Apr-28 01:00N 33°11' W 117°59'812.9
2018-Apr-28 00:25N 33°04' W 117°56'512.4
2018-Apr-28 00:00N 32°60' W 117°58'713.8
2018-Apr-27 23:30N 32°54' W 118°04'1614.0
2018-Apr-27 22:20N 32°42' W 118°16'613.7
2018-Apr-27 21:51N 32°37' W 118°22'3013.5
2018-Apr-27 19:37N 32°14' W 118°45'60 2.8
2018-Apr-26 22:23N 32°12' W 119°56'50 9.8
2018-Apr-26 17:16N 32°58' W 120°21'414.7
2018-Apr-26 16:59N 33°02' W 120°23'714.8
2018-Apr-26 16:31N 33°08' W 120°27'714.6
2018-Apr-26 16:00N 33°15' W 120°31'715.2
2018-Apr-26 15:31N 33°22' W 120°34'815.4
2018-Apr-26 15:00N 33°29' W 120°38'815.7
2018-Apr-26 14:30N 33°36' W 120°42'915.8
2018-Apr-26 13:57N 33°44' W 120°46'815.7
2018-Apr-26 13:27N 33°51' W 120°50'716.0
2018-Apr-26 13:00N 33°58' W 120°53'815.6
2018-Apr-26 12:29N 34°05' W 120°56'815.6
2018-Apr-26 12:00N 34°12' W 120°60'815.8
2018-Apr-26 11:30N 34°20' W 121°04'816.8
2018-Apr-26 11:00N 34°27' W 121°08'816.0
2018-Apr-26 10:30N 34°34' W 121°13'815.3
2018-Apr-26 10:00N 34°41' W 121°18'815.5
2018-Apr-26 09:31N 34°47' W 121°22'815.6
2018-Apr-26 09:00N 34°54' W 121°28'815.6
2018-Apr-26 08:30N 35°01' W 121°32'815.7
2018-Apr-26 08:01N 35°08' W 121°36'915.4
2018-Apr-26 07:26N 35°15' W 121°42'715.5
2018-Apr-26 07:00N 35°21' W 121°46'8815.5
2018-Apr-26 01:19N 36°38' W 122°39'815.5
2018-Apr-26 00:48N 36°46' W 122°43'515.1
2018-Apr-26 00:29N 36°50' W 122°46'715.0
2018-Apr-26 00:00N 36°56' W 122°49'815.2
2018-Apr-25 23:29N 37°03' W 122°54'715.4
2018-Apr-25 23:00N 37°10' W 122°58'815.4
2018-Apr-25 22:30N 37°17' W 123°02'714.9
2018-Apr-25 22:00N 37°24' W 123°06'613.0
2018-Apr-25 21:30N 37°30' W 123°06'712.9
2018-Apr-25 21:00N 37°36' W 123°01'713.9
2018-Apr-25 20:30N 37°39' W 122°54'713.8
2018-Apr-25 20:00N 37°43' W 122°46'611.6
2018-Apr-25 19:30N 37°46' W 122°40'713.0
2018-Apr-25 19:00N 37°48' W 122°32'713.3
2018-Apr-25 18:31N 37°51' W 122°25'612.7
2018-Apr-25 18:00N 37°57' W 122°27'611.7
2018-Apr-25 17:30N 38°02' W 122°22'611.1
2018-Apr-25 17:00N 38°04' W 122°16'5 9.7
2018-Apr-25 16:30N 38°02' W 122°10'2 0.3
2018-Apr-25 09:52N 38°02' W 122°07'0 0.0
2018-Apr-25 09:28N 38°02' W 122°07'0 0.0
2018-Apr-25 08:58N 38°02' W 122°07'0 0.0
2018-Apr-25 08:10N 38°02' W 122°07'0 0.0
2018-Apr-25 07:58N 38°02' W 122°07'0 0.0
2018-Apr-25 03:10N 38°02' W 122°07'0 0.0
2018-Apr-24 05:32N 38°02' W 122°07'0 0.1
2018-Apr-24 05:28N 38°02' W 122°07'1 1.9
2018-Apr-24 05:00N 38°02' W 122°08'3 6.1
2018-Apr-24 04:29N 38°03' W 122°12'4 8.1
2018-Apr-24 04:00N 38°04' W 122°17'4 7.5
2018-Apr-24 03:30N 38°02' W 122°21'4 8.0
2018-Apr-24 03:00N 37°60' W 122°25'5 9.6
2018-Apr-24 02:30N 37°55' W 122°27'4 8.8
2018-Apr-24 02:00N 37°51' W 122°25'510.6
2018-Apr-24 01:30N 37°48' W 122°30'713.1
2018-Apr-24 01:00N 37°46' W 122°38'510.3
2018-Apr-24 00:30N 37°43' W 122°43'510.1
2018-Apr-24 00:00N 37°39' W 122°48'510.1
2018-Apr-23 23:30N 37°37' W 122°54'611.4
2018-Apr-23 23:00N 37°34' W 122°60'510.7
2018-Apr-23 22:30N 37°30' W 123°05'2 3.2
2018-Apr-23 22:00N 37°29' W 123°06'4 8.6
2018-Apr-23 21:30N 37°24' W 123°05'713.1
2018-Apr-23 21:00N 37°18' W 123°02'712.8
2018-Apr-23 20:28N 37°12' W 122°59'612.6
2018-Apr-23 20:00N 37°07' W 122°56'612.4
2018-Apr-23 19:30N 37°01' W 122°52'612.6
2018-Apr-23 19:00N 36°55' W 122°49'612.7
2018-Apr-23 18:30N 36°50' W 122°46'612.7
2018-Apr-23 18:00N 36°44' W 122°42'1012.8
2018-Apr-23 17:12N 36°35' W 122°37'312.7
2018-Apr-23 17:00N 36°32' W 122°36'613.1
2018-Apr-23 16:30N 36°26' W 122°32'713.3
2018-Apr-23 15:57N 36°20' W 122°28'613.3
2018-Apr-23 15:29N 36°14' W 122°25'6013.2
2018-Apr-23 10:56N 35°23' W 121°47'613.4
2018-Apr-23 10:30N 35°18' W 121°43'713.2
2018-Apr-23 10:00N 35°12' W 121°39'613.1
2018-Apr-23 09:30N 35°06' W 121°35'713.3
2018-Apr-23 09:00N 35°01' W 121°31'713.1
2018-Apr-23 08:31N 34°55' W 121°27'713.3
2018-Apr-23 07:59N 34°49' W 121°23'613.1
2018-Apr-23 07:30N 34°44' W 121°19'713.4
2018-Apr-23 07:00N 34°38' W 121°15'713.3
2018-Apr-23 06:30N 34°32' W 121°11'612.8
2018-Apr-23 06:00N 34°27' W 121°07'612.8
2018-Apr-23 05:30N 34°21' W 121°03'612.5
2018-Apr-23 04:59N 34°15' W 120°59'612.6
2018-Apr-23 04:30N 34°10' W 120°55'712.9
2018-Apr-23 04:00N 34°05' W 120°51'612.5
2018-Apr-23 03:30N 33°59' W 120°47'612.0
2018-Apr-23 03:00N 33°54' W 120°44'611.5
2018-Apr-23 02:30N 33°49' W 120°40'612.0
2018-Apr-23 02:00N 33°44' W 120°36'612.4
2018-Apr-23 01:30N 33°39' W 120°33'611.7
2018-Apr-23 01:00N 33°34' W 120°28'612.9
2018-Apr-23 00:30N 33°35' W 120°20'612.4
2018-Apr-23 00:00N 33°35' W 120°13'612.7
2018-Apr-22 23:30N 33°35' W 120°05'612.8
2018-Apr-22 23:00N 33°35' W 119°57'713.0
2018-Apr-22 22:30N 33°35' W 119°50'613.1
2018-Apr-22 22:01N 33°35' W 119°42'713.3
2018-Apr-22 21:31N 33°35' W 119°34'713.6
2018-Apr-22 21:00N 33°35' W 119°25'713.1
2018-Apr-22 20:30N 33°35' W 119°18'611.4
2018-Apr-22 20:00N 33°35' W 119°11'611.8
2018-Apr-22 19:30N 33°35' W 119°04'611.8
2018-Apr-22 19:00N 33°35' W 118°57'612.4
2018-Apr-22 18:30N 33°35' W 118°49'612.4
2018-Apr-22 18:00N 33°35' W 118°42'612.0
2018-Apr-22 17:29N 33°35' W 118°34'611.7
2018-Apr-22 17:00N 33°35' W 118°27'611.5
2018-Apr-22 16:30N 33°35' W 118°21'510.8
2018-Apr-22 16:00N 33°36' W 118°14'611.1
2018-Apr-22 15:30N 33°41' W 118°11'3 6.3
2018-Apr-22 15:00N 33°44' W 118°12'2 4.3
2018-Apr-22 14:30N 33°46' W 118°13'  
Track history (hours):
 
Tides and Currents Weather Stations Pressure Air Temp Water Temp Dewpoint Dewpoint Depression Visibility Wind Speed Wind Dir Waves Ship Positions

Aquatravesia

Last reported at 2018-May-02 12:40 UTC. Time now 2018-May-20 14:04 UTC.
Position N 32°19' W 117°45'.
Warning: this ship's position is 18 days out of date.

Length 244 m; draft 8.7 m.

Type: Ship. MMSI: 636017859.

Date/timePositionNaut miles runAvg speedWind from/ knotsBaromVisibWave heightAir tempDewpointWater temp
2018-May-02 12:40N 32°19' W 117°45'211.6
2018-May-02 12:30N 32°21' W 117°45'611.5
2018-May-02 12:00N 32°27' W 117°47'611.5
2018-May-02 11:30N 32°32' W 117°49'611.8
2018-May-02 11:00N 32°38' W 117°51'611.8
2018-May-02 10:30N 32°44' W 117°53'611.7
2018-May-02 10:00N 32°49' W 117°55'612.0
2018-May-02 09:30N 32°55' W 117°57'611.8
2018-May-02 09:00N 33°00' W 117°59'612.0
2018-May-02 08:30N 33°06' W 118°02'612.0
2018-May-02 08:00N 33°12' W 118°04'612.0
2018-May-02 07:30N 33°17' W 118°06'2111.1
2018-May-02 05:37N 33°38' W 118°12'111.4
2018-May-02 05:29N 33°39' W 118°12'4 8.9
2018-May-02 05:00N 33°43' W 118°11'2 3.2
2018-May-02 04:29N 33°44' W 118°13'0 0.0
2018-May-02 03:59N 33°44' W 118°13'0 0.0
2018-May-02 03:26N 33°44' W 118°13'0 0.0
2018-May-02 02:59N 33°44' W 118°13'0 0.0
2018-May-02 02:29N 33°44' W 118°13'0 0.0
2018-May-02 01:59N 33°44' W 118°13'0 0.0
2018-May-02 01:29N 33°44' W 118°13'0 0.0
2018-May-02 00:59N 33°44' W 118°13'0 0.0
2018-May-02 00:29N 33°44' W 118°13'0 0.1
2018-May-01 23:59N 33°44' W 118°13'0 0.1
2018-May-01 23:29N 33°44' W 118°13'0 0.0
2018-May-01 22:59N 33°44' W 118°13'0 0.1
2018-May-01 22:29N 33°44' W 118°13'0 0.0
2018-May-01 21:59N 33°44' W 118°13'0 0.1
2018-May-01 21:26N 33°44' W 118°13'0 0.1
2018-May-01 21:01N 33°44' W 118°13'2 3.9
2018-May-01 20:31N 33°46' W 118°13'1 1.1
2018-May-01 19:56N 33°46' W 118°13'0 0.0
2018-May-01 19:14N 33°46' W 118°13'0 0.0
2018-May-01 18:47N 33°46' W 118°13'0 0.0
2018-May-01 02:44N 33°46' W 118°13'0 0.0
2018-May-01 02:26N 33°46' W 118°13'0 0.0
2018-Apr-29 23:44N 33°46' W 118°13'0 0.0
2018-Apr-29 23:26N 33°46' W 118°13'0 0.0
2018-Apr-29 22:20N 33°46' W 118°13'0 0.0
2018-Apr-29 21:53N 33°46' W 118°13'0 0.0
2018-Apr-29 21:26N 33°46' W 118°13'0 0.0
2018-Apr-29 20:56N 33°46' W 118°13'0 0.0
2018-Apr-29 20:17N 33°46' W 118°13'0 0.0
2018-Apr-29 19:50N 33°46' W 118°13'0 0.0
2018-Apr-29 19:26N 33°46' W 118°13'0 0.0
2018-Apr-29 18:50N 33°46' W 118°13'0 0.0
2018-Apr-29 18:20N 33°46' W 118°13'0 0.0
2018-Apr-29 17:50N 33°46' W 118°13'0 0.0
2018-Apr-29 16:38N 33°46' W 118°13'0 0.0
2018-Apr-29 16:29N 33°46' W 118°13'0 0.0
2018-Apr-29 15:56N 33°46' W 118°13'0 0.0
2018-Apr-29 15:26N 33°46' W 118°13'0 0.0
2018-Apr-29 10:59N 33°46' W 118°13'1 1.3
2018-Apr-29 10:30N 33°46' W 118°13'2 4.6
2018-Apr-29 10:00N 33°44' W 118°12'3 6.2
2018-Apr-29 09:28N 33°41' W 118°09'0 0.4
2018-Apr-29 08:22N 33°41' W 118°08'0 0.1
2018-Apr-29 07:58N 33°41' W 118°08'0 0.0
2018-Apr-29 07:10N 33°41' W 118°08'0 0.0
2018-Apr-29 06:46N 33°41' W 118°08'0 0.0
2018-Apr-29 06:28N 33°41' W 118°08'0 0.0
2018-Apr-29 05:58N 33°41' W 118°08'0 0.0
2018-Apr-29 05:22N 33°41' W 118°08'0 0.0
2018-Apr-29 04:58N 33°41' W 118°08'0 0.0
2018-Apr-29 04:28N 33°41' W 118°08'0 0.0
2018-Apr-29 03:58N 33°41' W 118°08'0 0.0
2018-Apr-29 03:25N 33°41' W 118°08'0 0.0
2018-Apr-29 02:49N 33°41' W 118°08'0 0.0
2018-Apr-29 02:28N 33°41' W 118°08'0 0.0
2018-Apr-29 01:58N 33°41' W 118°08'0 0.0
2018-Apr-29 01:28N 33°41' W 118°08'0 0.0
2018-Apr-29 00:58N 33°41' W 118°08'0 0.0
2018-Apr-29 00:28N 33°41' W 118°08'0 0.0
2018-Apr-28 23:58N 33°41' W 118°08'0 0.0
2018-Apr-28 23:28N 33°41' W 118°08'0 0.0
2018-Apr-28 22:58N 33°41' W 118°08'0 0.0
2018-Apr-28 22:28N 33°41' W 118°08'0 0.0
2018-Apr-28 21:58N 33°41' W 118°08'0 0.0
2018-Apr-28 21:22N 33°41' W 118°08'0 0.0
2018-Apr-28 20:55N 33°41' W 118°08'0 0.0
2018-Apr-28 20:28N 33°41' W 118°08'0 0.0
2018-Apr-28 19:55N 33°41' W 118°08'0 0.0
2018-Apr-28 19:28N 33°41' W 118°08'0 0.0
2018-Apr-28 18:55N 33°41' W 118°08'0 0.0
2018-Apr-28 18:25N 33°41' W 118°08'0 0.0
2018-Apr-28 17:55N 33°41' W 118°08'0 0.0
2018-Apr-28 17:22N 33°41' W 118°08'0 0.0
2018-Apr-28 16:58N 33°41' W 118°08'0 0.0
2018-Apr-28 15:36N 33°41' W 118°08'0 0.0
2018-Apr-28 15:30N 33°41' W 118°08'0 0.0
2018-Apr-28 15:00N 33°41' W 118°08'0 0.0
2018-Apr-28 14:30N 33°41' W 118°08'0 0.0
2018-Apr-28 14:00N 33°41' W 118°08'0 0.0
2018-Apr-28 13:27N 33°41' W 118°08'0 0.0
2018-Apr-28 12:36N 33°41' W 118°08'0 0.0
2018-Apr-28 12:21N 33°41' W 118°08'0 0.0
2018-Apr-28 11:54N 33°41' W 118°08'0 0.0
2018-Apr-28 11:18N 33°41' W 118°08'0 0.0
2018-Apr-28 11:00N 33°41' W 118°08'0 0.0
2018-Apr-28 10:30N 33°41' W 118°08'0 0.0
2018-Apr-28 09:48N 33°41' W 118°08'0 0.0
2018-Apr-28 04:27N 33°41' W 118°09'1 2.5
2018-Apr-28 04:00N 33°40' W 118°09'5 9.1
2018-Apr-28 03:28N 33°35' W 118°09'912.1
2018-Apr-28 02:46N 33°27' W 118°06'412.2
2018-Apr-28 02:28N 33°24' W 118°05'10 8.4
2018-Apr-28 01:15N 33°14' W 118°00'312.5
2018-Apr-28 01:00N 33°11' W 117°59'812.9
2018-Apr-28 00:25N 33°04' W 117°56'512.4
2018-Apr-28 00:00N 32°60' W 117°58'713.8
2018-Apr-27 23:30N 32°54' W 118°04'1614.0
2018-Apr-27 22:20N 32°42' W 118°16'613.7
2018-Apr-27 21:51N 32°37' W 118°22'3013.5
2018-Apr-27 19:37N 32°14' W 118°45'60 2.8
2018-Apr-26 22:23N 32°12' W 119°56'50 9.8
2018-Apr-26 17:16N 32°58' W 120°21'414.7
2018-Apr-26 16:59N 33°02' W 120°23'714.8
2018-Apr-26 16:31N 33°08' W 120°27'714.6
2018-Apr-26 16:00N 33°15' W 120°31'715.2
2018-Apr-26 15:31N 33°22' W 120°34'815.4
2018-Apr-26 15:00N 33°29' W 120°38'815.7
2018-Apr-26 14:30N 33°36' W 120°42'915.8
2018-Apr-26 13:57N 33°44' W 120°46'815.7
2018-Apr-26 13:27N 33°51' W 120°50'716.0
2018-Apr-26 13:00N 33°58' W 120°53'815.6
2018-Apr-26 12:29N 34°05' W 120°56'815.6
2018-Apr-26 12:00N 34°12' W 120°60'815.8
2018-Apr-26 11:30N 34°20' W 121°04'816.8
2018-Apr-26 11:00N 34°27' W 121°08'816.0
2018-Apr-26 10:30N 34°34' W 121°13'815.3
2018-Apr-26 10:00N 34°41' W 121°18'815.5
2018-Apr-26 09:31N 34°47' W 121°22'815.6
2018-Apr-26 09:00N 34°54' W 121°28'815.6
2018-Apr-26 08:30N 35°01' W 121°32'815.7
2018-Apr-26 08:01N 35°08' W 121°36'915.4
2018-Apr-26 07:26N 35°15' W 121°42'715.5
2018-Apr-26 07:00N 35°21' W 121°46'8815.5
2018-Apr-26 01:19N 36°38' W 122°39'815.5
2018-Apr-26 00:48N 36°46' W 122°43'515.1
2018-Apr-26 00:29N 36°50' W 122°46'715.0
2018-Apr-26 00:00N 36°56' W 122°49'815.2
2018-Apr-25 23:29N 37°03' W 122°54'715.4
2018-Apr-25 23:00N 37°10' W 122°58'815.4
2018-Apr-25 22:30N 37°17' W 123°02'714.9
2018-Apr-25 22:00N 37°24' W 123°06'613.0
2018-Apr-25 21:30N 37°30' W 123°06'712.9
2018-Apr-25 21:00N 37°36' W 123°01'713.9
2018-Apr-25 20:30N 37°39' W 122°54'713.8
2018-Apr-25 20:00N 37°43' W 122°46'611.6
2018-Apr-25 19:30N 37°46' W 122°40'713.0
2018-Apr-25 19:00N 37°48' W 122°32'713.3
2018-Apr-25 18:31N 37°51' W 122°25'612.7
2018-Apr-25 18:00N 37°57' W 122°27'611.7
2018-Apr-25 17:30N 38°02' W 122°22'611.1
2018-Apr-25 17:00N 38°04' W 122°16'5 9.7
2018-Apr-25 16:30N 38°02' W 122°10'2 0.3
2018-Apr-25 09:52N 38°02' W 122°07'0 0.0
2018-Apr-25 09:28N 38°02' W 122°07'0 0.0
2018-Apr-25 08:58N 38°02' W 122°07'0 0.0
2018-Apr-25 08:10N 38°02' W 122°07'0 0.0
2018-Apr-25 07:58N 38°02' W 122°07'0 0.0
2018-Apr-25 03:10N 38°02' W 122°07'0 0.0
2018-Apr-24 05:32N 38°02' W 122°07'0 0.1
2018-Apr-24 05:28N 38°02' W 122°07'1 1.9
2018-Apr-24 05:00N 38°02' W 122°08'3 6.1
2018-Apr-24 04:29N 38°03' W 122°12'4 8.1
2018-Apr-24 04:00N 38°04' W 122°17'4 7.5
2018-Apr-24 03:30N 38°02' W 122°21'4 8.0
2018-Apr-24 03:00N 37°60' W 122°25'5 9.6
2018-Apr-24 02:30N 37°55' W 122°27'4 8.8
2018-Apr-24 02:00N 37°51' W 122°25'510.6
2018-Apr-24 01:30N 37°48' W 122°30'713.1
2018-Apr-24 01:00N 37°46' W 122°38'510.3
2018-Apr-24 00:30N 37°43' W 122°43'510.1
2018-Apr-24 00:00N 37°39' W 122°48'510.1
2018-Apr-23 23:30N 37°37' W 122°54'611.4
2018-Apr-23 23:00N 37°34' W 122°60'510.7
2018-Apr-23 22:30N 37°30' W 123°05'2 3.2
2018-Apr-23 22:00N 37°29' W 123°06'4 8.6
2018-Apr-23 21:30N 37°24' W 123°05'713.1
2018-Apr-23 21:00N 37°18' W 123°02'712.8
2018-Apr-23 20:28N 37°12' W 122°59'612.6
2018-Apr-23 20:00N 37°07' W 122°56'612.4
2018-Apr-23 19:30N 37°01' W 122°52'612.6
2018-Apr-23 19:00N 36°55' W 122°49'612.7
2018-Apr-23 18:30N 36°50' W 122°46'612.7
2018-Apr-23 18:00N 36°44' W 122°42'1012.8
2018-Apr-23 17:12N 36°35' W 122°37'312.7
2018-Apr-23 17:00N 36°32' W 122°36'613.1
2018-Apr-23 16:30N 36°26' W 122°32'713.3
2018-Apr-23 15:57N 36°20' W 122°28'613.3
2018-Apr-23 15:29N 36°14' W 122°25'6013.2
2018-Apr-23 10:56N 35°23' W 121°47'613.4
2018-Apr-23 10:30N 35°18' W 121°43'713.2
2018-Apr-23 10:00N 35°12' W 121°39'613.1
2018-Apr-23 09:30N 35°06' W 121°35'713.3
2018-Apr-23 09:00N 35°01' W 121°31'713.1
2018-Apr-23 08:31N 34°55' W 121°27'713.3
2018-Apr-23 07:59N 34°49' W 121°23'613.1
2018-Apr-23 07:30N 34°44' W 121°19'713.4
2018-Apr-23 07:00N 34°38' W 121°15'713.3
2018-Apr-23 06:30N 34°32' W 121°11'612.8
2018-Apr-23 06:00N 34°27' W 121°07'612.8
2018-Apr-23 05:30N 34°21' W 121°03'612.5
2018-Apr-23 04:59N 34°15' W 120°59'612.6
2018-Apr-23 04:30N 34°10' W 120°55'712.9
2018-Apr-23 04:00N 34°05' W 120°51'612.5
2018-Apr-23 03:30N 33°59' W 120°47'612.0
2018-Apr-23 03:00N 33°54' W 120°44'611.5
2018-Apr-23 02:30N 33°49' W 120°40'612.0
2018-Apr-23 02:00N 33°44' W 120°36'612.4
2018-Apr-23 01:30N 33°39' W 120°33'611.7
2018-Apr-23 01:00N 33°34' W 120°28'612.9
2018-Apr-23 00:30N 33°35' W 120°20'612.4
2018-Apr-23 00:00N 33°35' W 120°13'612.7
2018-Apr-22 23:30N 33°35' W 120°05'612.8
2018-Apr-22 23:00N 33°35' W 119°57'713.0
2018-Apr-22 22:30N 33°35' W 119°50'613.1
2018-Apr-22 22:01N 33°35' W 119°42'713.3
2018-Apr-22 21:31N 33°35' W 119°34'713.6
2018-Apr-22 21:00N 33°35' W 119°25'713.1
2018-Apr-22 20:30N 33°35' W 119°18'611.4
2018-Apr-22 20:00N 33°35' W 119°11'611.8
2018-Apr-22 19:30N 33°35' W 119°04'611.8
2018-Apr-22 19:00N 33°35' W 118°57'612.4
2018-Apr-22 18:30N 33°35' W 118°49'612.4
2018-Apr-22 18:00N 33°35' W 118°42'612.0
2018-Apr-22 17:29N 33°35' W 118°34'611.7
2018-Apr-22 17:00N 33°35' W 118°27'611.5
2018-Apr-22 16:30N 33°35' W 118°21'510.8
2018-Apr-22 16:00N 33°36' W 118°14'611.1
2018-Apr-22 15:30N 33°41' W 118°11'3 6.3
2018-Apr-22 15:00N 33°44' W 118°12'2 4.3
2018-Apr-22 14:30N 33°46' W 118°13'  

Dump ship's entire track history